Urb Fajardo Gdns, Puerto Rico
Current Conditions -  °F | °C
As of 8:53 AM on Sunday 23 Nov 2014 (Local Time) from TJNR Reporting Station
Clear Clear  
Wind Chill: 83°   Ceiling: Unl
Heat Index: 89°   Visibility: 10mi
Dew Point: 74°   Wind: 10mph
Humidity: 74%   Direction: 80°E
Pressure: 30.07"   Gusts: NA
Location:  18.3304°N, 65.6573°W
Report Text: TJNR 231253Z AUTO 08009KT 10SM CLR 28/23 A3007 RMK AO2 SLP183 T02830233 $
Loading
Personal Weather Stations






























Interactive Weather Map New forecast layout! Learn more

10-Day Weather Forecast

Advertisements
Track Severe Weather on mobile